KLMT/LMT METAR and TAF weather

Enter ICAO airport designator
Station Type Date Time Source
KLMT METAR 2021/08/01 16:53 UTC NOAA

KLMT 011653Z 21003KT 10SM SCT200 23/13 A3023 RMK AO2 SLP194 T02280128


Station Type Date Time Source
KLMT Decoded METAR 2021/08/01 16:53 UTC NOAA

KLAMATH FALLS INTERNATIONAL AIRPORT, OR, United States (KLMT) 42-09N 121-43W 1246M
Aug 01, 2021 - 12:53 PM EDT / 2021.08.01 1653 UTC
Wind: from the SSW (210 degrees) at 3 MPH (3 KT):0
Visibility: 10 mile(s):0
Sky conditions: partly cloudy
Temperature: 73.0 F (22.8 C)
Dew Point: 55.0 F (12.8 C)
Relative Humidity: 53%
Pressure (altimeter): 30.23 in. Hg (1023 hPa)
ob: KLMT 011653Z 21003KT 10SM SCT200 23/13 A3023 RMK AO2 SLP194 T02280128
cycle: 17

Station Type Date Time Source
KLMT TAF 2021/08/01 12:42 UTC NOAA

TAF KLMT 011140Z 0112/0212 VRB03KT P6SM SCT080 BKN200
FM012000 24008KT P6SM BKN080 OVC200
FM020000 33010KT P6SM VCSH SCT080 BKN200
FM020400 VRB04KT P6SM SCT100

Example: see airport list